sensor_id;sensor_type;location;lat;lon;timestamp;P1;durP1;ratioP1;P2;durP2;ratioP2
16954;SDS011;8594;52.052;8.354;2023-03-14T00:00:56;4.47;;;2.10;;
16954;SDS011;8594;52.052;8.354;2023-03-14T00:03:23;6.10;;;2.00;;
16954;SDS011;8594;52.052;8.354;2023-03-14T00:05:50;5.77;;;2.30;;
16954;SDS011;8594;52.052;8.354;2023-03-14T00:08:17;6.47;;;2.10;;
16954;SDS011;8594;52.052;8.354;2023-03-14T00:10:46;6.70;;;1.60;;
16954;SDS011;8594;52.052;8.354;2023-03-14T00:13:13;7.90;;;2.10;;
16954;SDS011;8594;52.052;8.354;2023-03-14T00:15:41;7.20;;;1.90;;
16954;SDS011;8594;52.052;8.354;2023-03-14T00:18:08;6.93;;;2.03;;
16954;SDS011;8594;52.052;8.354;2023-03-14T00:20:34;5.17;;;2.27;;
16954;SDS011;8594;52.052;8.354;2023-03-14T00:23:01;9.50;;;2.07;;
16954;SDS011;8594;52.052;8.354;2023-03-14T00:25:28;5.17;;;2.17;;
16954;SDS011;8594;52.052;8.354;2023-03-14T00:27:55;5.47;;;1.50;;
16954;SDS011;8594;52.052;8.354;2023-03-14T00:30:22;5.50;;;1.90;;
16954;SDS011;8594;52.052;8.354;2023-03-14T00:32:50;8.07;;;1.90;;
16954;SDS011;8594;52.052;8.354;2023-03-14T00:35:16;7.53;;;2.47;;
16954;SDS011;8594;52.052;8.354;2023-03-14T00:37:43;5.37;;;2.00;;
16954;SDS011;8594;52.052;8.354;2023-03-14T00:40:10;7.07;;;2.30;;
16954;SDS011;8594;52.052;8.354;2023-03-14T00:42:37;4.07;;;1.90;;
16954;SDS011;8594;52.052;8.354;2023-03-14T00:45:04;5.60;;;1.90;;
16954;SDS011;8594;52.052;8.354;2023-03-14T00:47:33;6.03;;;1.77;;
16954;SDS011;8594;52.052;8.354;2023-03-14T00:50:01;8.33;;;2.00;;
16954;SDS011;8594;52.052;8.354;2023-03-14T00:52:29;4.87;;;1.87;;
16954;SDS011;8594;52.052;8.354;2023-03-14T00:54:56;8.43;;;1.90;;
16954;SDS011;8594;52.052;8.354;2023-03-14T00:57:22;7.40;;;2.00;;
16954;SDS011;8594;52.052;8.354;2023-03-14T00:59:50;8.77;;;2.00;;
16954;SDS011;8594;52.052;8.354;2023-03-14T01:02:17;5.10;;;2.10;;
16954;SDS011;8594;52.052;8.354;2023-03-14T01:04:44;6.33;;;1.80;;
16954;SDS011;8594;52.052;8.354;2023-03-14T01:07:15;6.23;;;1.77;;
16954;SDS011;8594;52.052;8.354;2023-03-14T01:09:42;7.00;;;1.87;;
16954;SDS011;8594;52.052;8.354;2023-03-14T01:12:09;5.33;;;1.87;;
16954;SDS011;8594;52.052;8.354;2023-03-14T01:14:35;4.67;;;1.90;;
16954;SDS011;8594;52.052;8.354;2023-03-14T01:17:02;6.83;;;2.10;;
16954;SDS011;8594;52.052;8.354;2023-03-14T01:19:29;7.77;;;2.23;;
16954;SDS011;8594;52.052;8.354;2023-03-14T01:21:56;5.13;;;1.77;;
16954;SDS011;8594;52.052;8.354;2023-03-14T01:24:24;5.70;;;2.13;;
16954;SDS011;8594;52.052;8.354;2023-03-14T01:26:51;8.70;;;2.23;;
16954;SDS011;8594;52.052;8.354;2023-03-14T01:29:18;3.53;;;1.60;;
16954;SDS011;8594;52.052;8.354;2023-03-14T01:31:44;6.23;;;1.90;;
16954;SDS011;8594;52.052;8.354;2023-03-14T01:34:11;7.63;;;2.07;;
16954;SDS011;8594;52.052;8.354;2023-03-14T01:36:38;5.87;;;1.80;;
16954;SDS011;8594;52.052;8.354;2023-03-14T01:39:05;6.47;;;1.97;;
16954;SDS011;8594;52.052;8.354;2023-03-14T01:41:34;4.27;;;1.50;;
16954;SDS011;8594;52.052;8.354;2023-03-14T01:44:01;8.83;;;1.97;;
16954;SDS011;8594;52.052;8.354;2023-03-14T01:46:32;7.10;;;2.00;;
16954;SDS011;8594;52.052;8.354;2023-03-14T01:49:12;8.47;;;1.83;;
16954;SDS011;8594;52.052;8.354;2023-03-14T01:51:47;8.83;;;1.70;;
16954;SDS011;8594;52.052;8.354;2023-03-14T01:54:24;5.50;;;1.77;;
16954;SDS011;8594;52.052;8.354;2023-03-14T01:56:58;7.93;;;2.10;;
16954;SDS011;8594;52.052;8.354;2023-03-14T01:59:32;7.90;;;2.00;;
16954;SDS011;8594;52.052;8.354;2023-03-14T02:02:01;15.30;;;1.90;;
16954;SDS011;8594;52.052;8.354;2023-03-14T02:04:32;4.23;;;1.50;;
16954;SDS011;8594;52.052;8.354;2023-03-14T02:07:03;9.43;;;1.97;;
16954;SDS011;8594;52.052;8.354;2023-03-14T02:09:38;7.20;;;1.87;;
16954;SDS011;8594;52.052;8.354;2023-03-14T02:12:08;7.93;;;1.80;;
16954;SDS011;8594;52.052;8.354;2023-03-14T02:14:39;7.73;;;1.80;;
16954;SDS011;8594;52.052;8.354;2023-03-14T02:17:07;11.50;;;1.83;;
16954;SDS011;8594;52.052;8.354;2023-03-14T02:19:37;4.60;;;1.67;;
16954;SDS011;8594;52.052;8.354;2023-03-14T02:22:20;8.17;;;1.80;;
16954;SDS011;8594;52.052;8.354;2023-03-14T02:24:49;7.40;;;1.97;;
16954;SDS011;8594;52.052;8.354;2023-03-14T02:27:26;5.87;;;1.70;;
16954;SDS011;8594;52.052;8.354;2023-03-14T02:29:54;6.20;;;1.73;;
16954;SDS011;8594;52.052;8.354;2023-03-14T02:32:26;3.47;;;1.00;;
16954;SDS011;8594;52.052;8.354;2023-03-14T02:34:58;7.80;;;1.47;;
16954;SDS011;8594;52.052;8.354;2023-03-14T02:37:31;5.73;;;1.23;;
16954;SDS011;8594;52.052;8.354;2023-03-14T02:40:05;3.33;;;0.90;;
16954;SDS011;8594;52.052;8.354;2023-03-14T02:42:35;4.47;;;1.00;;
16954;SDS011;8594;52.052;8.354;2023-03-14T02:48:06;4.97;;;1.10;;
16954;SDS011;8594;52.052;8.354;2023-03-14T02:50:41;1.23;;;0.90;;
16954;SDS011;8594;52.052;8.354;2023-03-14T02:53:11;3.53;;;0.90;;
16954;SDS011;8594;52.052;8.354;2023-03-14T02:55:44;4.43;;;1.17;;
16954;SDS011;8594;52.052;8.354;2023-03-14T02:58:14;2.57;;;0.90;;
16954;SDS011;8594;52.052;8.354;2023-03-14T03:00:41;3.87;;;1.00;;
16954;SDS011;8594;52.052;8.354;2023-03-14T03:03:09;5.33;;;1.00;;
16954;SDS011;8594;52.052;8.354;2023-03-14T03:05:36;5.33;;;1.07;;
16954;SDS011;8594;52.052;8.354;2023-03-14T03:08:03;2.80;;;1.20;;
16954;SDS011;8594;52.052;8.354;2023-03-14T03:10:31;3.93;;;1.10;;
16954;SDS011;8594;52.052;8.354;2023-03-14T03:12:58;3.63;;;1.00;;
16954;SDS011;8594;52.052;8.354;2023-03-14T03:15:26;3.57;;;1.10;;
16954;SDS011;8594;52.052;8.354;2023-03-14T03:17:53;5.07;;;1.30;;
16954;SDS011;8594;52.052;8.354;2023-03-14T03:20:20;3.80;;;1.17;;
16954;SDS011;8594;52.052;8.354;2023-03-14T03:22:47;6.83;;;1.20;;
16954;SDS011;8594;52.052;8.354;2023-03-14T03:25:14;4.60;;;1.00;;
16954;SDS011;8594;52.052;8.354;2023-03-14T03:27:42;5.67;;;1.20;;
16954;SDS011;8594;52.052;8.354;2023-03-14T03:30:09;5.43;;;1.20;;
16954;SDS011;8594;52.052;8.354;2023-03-14T03:32:38;12.50;;;1.87;;
16954;SDS011;8594;52.052;8.354;2023-03-14T03:35:05;5.53;;;1.23;;
16954;SDS011;8594;52.052;8.354;2023-03-14T03:37:33;3.53;;;1.30;;
16954;SDS011;8594;52.052;8.354;2023-03-14T03:40:00;4.67;;;1.60;;
16954;SDS011;8594;52.052;8.354;2023-03-14T03:42:29;3.57;;;1.40;;
16954;SDS011;8594;52.052;8.354;2023-03-14T03:44:56;4.53;;;1.30;;
16954;SDS011;8594;52.052;8.354;2023-03-14T03:47:23;2.97;;;1.20;;
16954;SDS011;8594;52.052;8.354;2023-03-14T03:49:51;6.93;;;1.50;;
16954;SDS011;8594;52.052;8.354;2023-03-14T03:52:18;5.10;;;1.20;;
16954;SDS011;8594;52.052;8.354;2023-03-14T03:54:45;3.87;;;1.10;;
16954;SDS011;8594;52.052;8.354;2023-03-14T03:57:12;3.63;;;1.30;;
16954;SDS011;8594;52.052;8.354;2023-03-14T03:59:39;3.50;;;1.40;;
16954;SDS011;8594;52.052;8.354;2023-03-14T04:02:06;4.13;;;1.30;;
16954;SDS011;8594;52.052;8.354;2023-03-14T04:04:33;6.57;;;1.50;;
16954;SDS011;8594;52.052;8.354;2023-03-14T04:07:01;3.57;;;1.17;;
16954;SDS011;8594;52.052;8.354;2023-03-14T04:09:28;9.93;;;1.40;;
16954;SDS011;8594;52.052;8.354;2023-03-14T04:11:55;5.27;;;1.70;;
16954;SDS011;8594;52.052;8.354;2023-03-14T04:14:23;8.77;;;1.60;;
16954;SDS011;8594;52.052;8.354;2023-03-14T04:16:50;7.20;;;1.83;;
16954;SDS011;8594;52.052;8.354;2023-03-14T04:19:16;4.03;;;1.40;;
16954;SDS011;8594;52.052;8.354;2023-03-14T04:21:43;8.17;;;1.63;;
16954;SDS011;8594;52.052;8.354;2023-03-14T04:24:13;5.13;;;1.67;;
16954;SDS011;8594;52.052;8.354;2023-03-14T04:26:40;6.57;;;1.70;;
16954;SDS011;8594;52.052;8.354;2023-03-14T04:29:07;9.13;;;2.03;;
16954;SDS011;8594;52.052;8.354;2023-03-14T04:31:34;10.23;;;2.00;;
16954;SDS011;8594;52.052;8.354;2023-03-14T04:34:00;7.27;;;1.90;;
16954;SDS011;8594;52.052;8.354;2023-03-14T04:36:27;6.07;;;2.10;;
16954;SDS011;8594;52.052;8.354;2023-03-14T04:38:54;9.37;;;2.17;;
16954;SDS011;8594;52.052;8.354;2023-03-14T04:41:22;9.33;;;1.80;;
16954;SDS011;8594;52.052;8.354;2023-03-14T04:43:49;9.00;;;1.93;;
16954;SDS011;8594;52.052;8.354;2023-03-14T04:46:15;8.17;;;1.53;;
16954;SDS011;8594;52.052;8.354;2023-03-14T04:48:43;11.07;;;1.90;;
16954;SDS011;8594;52.052;8.354;2023-03-14T04:51:09;10.40;;;2.40;;
16954;SDS011;8594;52.052;8.354;2023-03-14T04:53:36;6.30;;;1.80;;
16954;SDS011;8594;52.052;8.354;2023-03-14T04:56:03;9.87;;;1.70;;
16954;SDS011;8594;52.052;8.354;2023-03-14T04:58:32;8.07;;;1.97;;
16954;SDS011;8594;52.052;8.354;2023-03-14T05:01:01;14.63;;;2.17;;
16954;SDS011;8594;52.052;8.354;2023-03-14T05:21:55;3.90;;;1.40;;
16954;SDS011;8594;52.052;8.354;2023-03-14T05:24:22;10.37;;;1.90;;
16954;SDS011;8594;52.052;8.354;2023-03-14T05:26:49;4.67;;;2.17;;
16954;SDS011;8594;52.052;8.354;2023-03-14T05:29:15;6.60;;;2.07;;
16954;SDS011;8594;52.052;8.354;2023-03-14T05:31:42;9.27;;;2.10;;
16954;SDS011;8594;52.052;8.354;2023-03-14T05:34:09;11.03;;;1.80;;
16954;SDS011;8594;52.052;8.354;2023-03-14T05:36:36;7.70;;;1.80;;
16954;SDS011;8594;52.052;8.354;2023-03-14T05:39:05;7.80;;;1.70;;
16954;SDS011;8594;52.052;8.354;2023-03-14T05:41:32;12.27;;;2.00;;
16954;SDS011;8594;52.052;8.354;2023-03-14T05:44:00;9.07;;;1.93;;
16954;SDS011;8594;52.052;8.354;2023-03-14T05:46:27;9.30;;;1.73;;
16954;SDS011;8594;52.052;8.354;2023-03-14T05:48:55;7.17;;;1.70;;
16954;SDS011;8594;52.052;8.354;2023-03-14T05:51:22;6.30;;;1.80;;
16954;SDS011;8594;52.052;8.354;2023-03-14T05:53:49;6.57;;;1.70;;
16954;SDS011;8594;52.052;8.354;2023-03-14T05:56:17;5.17;;;1.60;;
16954;SDS011;8594;52.052;8.354;2023-03-14T05:58:44;5.73;;;1.70;;
16954;SDS011;8594;52.052;8.354;2023-03-14T06:01:11;7.83;;;1.93;;
16954;SDS011;8594;52.052;8.354;2023-03-14T06:03:38;6.40;;;1.57;;
16954;SDS011;8594;52.052;8.354;2023-03-14T06:06:05;2.43;;;1.30;;
16954;SDS011;8594;52.052;8.354;2023-03-14T06:08:32;5.40;;;1.37;;
16954;SDS011;8594;52.052;8.354;2023-03-14T06:11:01;5.03;;;1.10;;
16954;SDS011;8594;52.052;8.354;2023-03-14T06:13:30;4.37;;;1.30;;
16954;SDS011;8594;52.052;8.354;2023-03-14T06:15:57;3.83;;;1.00;;
16954;SDS011;8594;52.052;8.354;2023-03-14T06:18:24;3.33;;;1.10;;
16954;SDS011;8594;52.052;8.354;2023-03-14T06:20:53;4.63;;;1.50;;
16954;SDS011;8594;52.052;8.354;2023-03-14T06:23:20;4.50;;;1.40;;
16954;SDS011;8594;52.052;8.354;2023-03-14T06:25:47;3.43;;;1.10;;
16954;SDS011;8594;52.052;8.354;2023-03-14T06:28:14;3.10;;;1.10;;
16954;SDS011;8594;52.052;8.354;2023-03-14T06:30:42;7.37;;;1.30;;
16954;SDS011;8594;52.052;8.354;2023-03-14T06:33:16;1.03;;;0.90;;
16954;SDS011;8594;52.052;8.354;2023-03-14T06:35:43;5.03;;;1.40;;
16954;SDS011;8594;52.052;8.354;2023-03-14T06:38:10;4.97;;;1.37;;
16954;SDS011;8594;52.052;8.354;2023-03-14T06:40:37;1.10;;;0.90;;
16954;SDS011;8594;52.052;8.354;2023-03-14T06:43:04;5.93;;;1.10;;
16954;SDS011;8594;52.052;8.354;2023-03-14T06:45:30;2.10;;;0.80;;
16954;SDS011;8594;52.052;8.354;2023-03-14T06:47:59;2.73;;;1.03;;
16954;SDS011;8594;52.052;8.354;2023-03-14T06:50:26;3.80;;;0.90;;
16954;SDS011;8594;52.052;8.354;2023-03-14T06:52:53;0.87;;;0.80;;
16954;SDS011;8594;52.052;8.354;2023-03-14T06:55:20;2.40;;;0.90;;
16954;SDS011;8594;52.052;8.354;2023-03-14T06:57:47;1.47;;;1.00;;
16954;SDS011;8594;52.052;8.354;2023-03-14T07:00:15;2.50;;;0.93;;
16954;SDS011;8594;52.052;8.354;2023-03-14T07:02:43;2.83;;;1.10;;
16954;SDS011;8594;52.052;8.354;2023-03-14T07:05:11;2.03;;;0.90;;
16954;SDS011;8594;52.052;8.354;2023-03-14T07:07:38;3.77;;;1.30;;
16954;SDS011;8594;52.052;8.354;2023-03-14T07:10:05;4.43;;;0.73;;
16954;SDS011;8594;52.052;8.354;2023-03-14T07:12:33;3.47;;;0.97;;
16954;SDS011;8594;52.052;8.354;2023-03-14T07:15:00;7.37;;;1.67;;
16954;SDS011;8594;52.052;8.354;2023-03-14T07:17:27;1.77;;;0.70;;
16954;SDS011;8594;52.052;8.354;2023-03-14T07:19:54;3.90;;;0.80;;
16954;SDS011;8594;52.052;8.354;2023-03-14T07:22:22;3.37;;;1.20;;
16954;SDS011;8594;52.052;8.354;2023-03-14T07:24:49;5.00;;;0.90;;
16954;SDS011;8594;52.052;8.354;2023-03-14T07:27:16;2.07;;;0.80;;
16954;SDS011;8594;52.052;8.354;2023-03-14T07:29:43;4.23;;;1.00;;
16954;SDS011;8594;52.052;8.354;2023-03-14T07:32:09;0.80;;;0.70;;
16954;SDS011;8594;52.052;8.354;2023-03-14T07:34:39;4.27;;;1.03;;
16954;SDS011;8594;52.052;8.354;2023-03-14T07:37:06;2.63;;;1.20;;
16954;SDS011;8594;52.052;8.354;2023-03-14T07:39:35;1.87;;;1.10;;
16954;SDS011;8594;52.052;8.354;2023-03-14T07:42:02;3.03;;;0.83;;
16954;SDS011;8594;52.052;8.354;2023-03-14T07:44:29;6.03;;;1.20;;
16954;SDS011;8594;52.052;8.354;2023-03-14T07:46:56;2.87;;;0.90;;
16954;SDS011;8594;52.052;8.354;2023-03-14T07:49:22;4.50;;;0.80;;
16954;SDS011;8594;52.052;8.354;2023-03-14T07:51:50;4.67;;;1.10;;
16954;SDS011;8594;52.052;8.354;2023-03-14T07:54:17;5.23;;;1.40;;
16954;SDS011;8594;52.052;8.354;2023-03-14T07:56:45;2.70;;;1.10;;
16954;SDS011;8594;52.052;8.354;2023-03-14T07:59:12;5.60;;;1.07;;
16954;SDS011;8594;52.052;8.354;2023-03-14T08:01:39;4.67;;;1.23;;
16954;SDS011;8594;52.052;8.354;2023-03-14T08:04:06;1.90;;;1.00;;
16954;SDS011;8594;52.052;8.354;2023-03-14T08:06:34;7.40;;;1.47;;
16954;SDS011;8594;52.052;8.354;2023-03-14T08:09:01;3.13;;;1.20;;
16954;SDS011;8594;52.052;8.354;2023-03-14T08:11:28;2.07;;;1.20;;
16954;SDS011;8594;52.052;8.354;2023-03-14T08:13:56;2.80;;;1.50;;
16954;SDS011;8594;52.052;8.354;2023-03-14T08:16:23;2.20;;;1.40;;
16954;SDS011;8594;52.052;8.354;2023-03-14T08:18:50;4.53;;;1.60;;
16954;SDS011;8594;52.052;8.354;2023-03-14T08:21:17;4.63;;;2.00;;
16954;SDS011;8594;52.052;8.354;2023-03-14T08:23:44;7.67;;;2.17;;
16954;SDS011;8594;52.052;8.354;2023-03-14T08:26:11;3.27;;;1.70;;
16954;SDS011;8594;52.052;8.354;2023-03-14T08:28:38;4.03;;;2.10;;
16954;SDS011;8594;52.052;8.354;2023-03-14T08:31:06;4.03;;;1.83;;
16954;SDS011;8594;52.052;8.354;2023-03-14T08:33:33;4.63;;;1.93;;
16954;SDS011;8594;52.052;8.354;2023-03-14T08:36:00;4.17;;;2.30;;
16954;SDS011;8594;52.052;8.354;2023-03-14T08:38:27;4.27;;;2.33;;
16954;SDS011;8594;52.052;8.354;2023-03-14T08:40:55;7.30;;;2.60;;
16954;SDS011;8594;52.052;8.354;2023-03-14T08:43:23;5.10;;;2.43;;
16954;SDS011;8594;52.052;8.354;2023-03-14T08:45:50;6.50;;;2.90;;
16954;SDS011;8594;52.052;8.354;2023-03-14T08:48:18;4.40;;;2.70;;
16954;SDS011;8594;52.052;8.354;2023-03-14T08:50:45;5.27;;;3.07;;
16954;SDS011;8594;52.052;8.354;2023-03-14T08:53:13;4.83;;;3.20;;
16954;SDS011;8594;52.052;8.354;2023-03-14T08:55:39;4.30;;;3.07;;
16954;SDS011;8594;52.052;8.354;2023-03-14T08:58:07;5.93;;;3.33;;
16954;SDS011;8594;52.052;8.354;2023-03-14T09:00:33;8.37;;;4.00;;
16954;SDS011;8594;52.052;8.354;2023-03-14T09:03:00;6.00;;;3.40;;
16954;SDS011;8594;52.052;8.354;2023-03-14T09:05:29;6.40;;;3.70;;
16954;SDS011;8594;52.052;8.354;2023-03-14T09:07:59;5.30;;;3.97;;
16954;SDS011;8594;52.052;8.354;2023-03-14T09:10:26;4.83;;;3.83;;
16954;SDS011;8594;52.052;8.354;2023-03-14T09:12:53;7.63;;;4.00;;
16954;SDS011;8594;52.052;8.354;2023-03-14T09:15:21;4.77;;;3.40;;
16954;SDS011;8594;52.052;8.354;2023-03-14T09:17:48;5.50;;;3.50;;
16954;SDS011;8594;52.052;8.354;2023-03-14T09:20:15;5.20;;;3.60;;
16954;SDS011;8594;52.052;8.354;2023-03-14T09:22:44;7.87;;;3.80;;
16954;SDS011;8594;52.052;8.354;2023-03-14T09:25:10;6.50;;;3.90;;
16954;SDS011;8594;52.052;8.354;2023-03-14T09:27:38;5.40;;;3.77;;
16954;SDS011;8594;52.052;8.354;2023-03-14T09:30:05;5.80;;;3.87;;
16954;SDS011;8594;52.052;8.354;2023-03-14T09:32:33;5.37;;;4.50;;
16954;SDS011;8594;52.052;8.354;2023-03-14T09:35:00;5.90;;;3.90;;
16954;SDS011;8594;52.052;8.354;2023-03-14T09:37:27;8.60;;;4.43;;
16954;SDS011;8594;52.052;8.354;2023-03-14T09:39:55;6.67;;;4.40;;
16954;SDS011;8594;52.052;8.354;2023-03-14T09:42:22;5.77;;;4.63;;
16954;SDS011;8594;52.052;8.354;2023-03-14T09:44:53;7.70;;;5.47;;
16954;SDS011;8594;52.052;8.354;2023-03-14T09:47:25;6.60;;;5.27;;
16954;SDS011;8594;52.052;8.354;2023-03-14T09:49:53;6.23;;;4.93;;
16954;SDS011;8594;52.052;8.354;2023-03-14T09:52:21;6.17;;;4.90;;
16954;SDS011;8594;52.052;8.354;2023-03-14T09:54:56;8.30;;;5.20;;
16954;SDS011;8594;52.052;8.354;2023-03-14T09:57:28;6.67;;;5.17;;
16954;SDS011;8594;52.052;8.354;2023-03-14T10:00:00;9.40;;;4.60;;
16954;SDS011;8594;52.052;8.354;2023-03-14T10:02:37;9.00;;;4.90;;
16954;SDS011;8594;52.052;8.354;2023-03-14T10:05:08;4.97;;;4.00;;
16954;SDS011;8594;52.052;8.354;2023-03-14T10:07:43;4.67;;;3.70;;
16954;SDS011;8594;52.052;8.354;2023-03-14T10:10:13;4.90;;;4.03;;
16954;SDS011;8594;52.052;8.354;2023-03-14T10:12:45;5.57;;;4.10;;
16954;SDS011;8594;52.052;8.354;2023-03-14T10:15:22;5.77;;;4.70;;
16954;SDS011;8594;52.052;8.354;2023-03-14T10:17:53;6.27;;;4.70;;
16954;SDS011;8594;52.052;8.354;2023-03-14T10:20:26;5.67;;;4.20;;
16954;SDS011;8594;52.052;8.354;2023-03-14T10:22:59;7.80;;;4.60;;
16954;SDS011;8594;52.052;8.354;2023-03-14T10:25:30;1.40;;;1.30;;
16954;SDS011;8594;52.052;8.354;2023-03-14T10:27:59;1.80;;;1.10;;
16954;SDS011;8594;52.052;8.354;2023-03-14T10:30:27;0.90;;;0.90;;
16954;SDS011;8594;52.052;8.354;2023-03-14T10:33:09;2.07;;;0.93;;
16954;SDS011;8594;52.052;8.354;2023-03-14T10:35:44;1.93;;;1.00;;
16954;SDS011;8594;52.052;8.354;2023-03-14T10:38:13;1.77;;;0.90;;
16954;SDS011;8594;52.052;8.354;2023-03-14T10:40:47;1.23;;;0.90;;
16954;SDS011;8594;52.052;8.354;2023-03-14T10:43:19;0.93;;;0.80;;
16954;SDS011;8594;52.052;8.354;2023-03-14T10:45:52;3.03;;;1.60;;
16954;SDS011;8594;52.052;8.354;2023-03-14T10:48:25;2.30;;;1.10;;
16954;SDS011;8594;52.052;8.354;2023-03-14T10:51:02;3.67;;;1.07;;
16954;SDS011;8594;52.052;8.354;2023-03-14T10:53:33;0.93;;;0.77;;
16954;SDS011;8594;52.052;8.354;2023-03-14T10:56:07;1.23;;;0.80;;
16954;SDS011;8594;52.052;8.354;2023-03-14T10:58:40;1.47;;;1.07;;
16954;SDS011;8594;52.052;8.354;2023-03-14T11:01:14;2.03;;;1.20;;
16954;SDS011;8594;52.052;8.354;2023-03-14T11:04:01;2.07;;;1.10;;
16954;SDS011;8594;52.052;8.354;2023-03-14T11:06:42;1.50;;;0.90;;
16954;SDS011;8594;52.052;8.354;2023-03-14T11:09:18;2.77;;;1.00;;
16954;SDS011;8594;52.052;8.354;2023-03-14T11:11:58;1.00;;;0.90;;
16954;SDS011;8594;52.052;8.354;2023-03-14T11:14:41;2.77;;;0.80;;
16954;SDS011;8594;52.052;8.354;2023-03-14T11:17:15;0.90;;;0.63;;
16954;SDS011;8594;52.052;8.354;2023-03-14T11:19:56;0.90;;;0.80;;
16954;SDS011;8594;52.052;8.354;2023-03-14T11:22:44;2.60;;;0.90;;
16954;SDS011;8594;52.052;8.354;2023-03-14T11:25:22;4.53;;;0.90;;
16954;SDS011;8594;52.052;8.354;2023-03-14T11:28:01;0.70;;;0.60;;
16954;SDS011;8594;52.052;8.354;2023-03-14T11:30:42;2.37;;;0.90;;
16954;SDS011;8594;52.052;8.354;2023-03-14T11:33:20;2.00;;;0.70;;
16954;SDS011;8594;52.052;8.354;2023-03-14T11:35:54;0.70;;;0.63;;
16954;SDS011;8594;52.052;8.354;2023-03-14T11:38:30;0.90;;;0.90;;
16954;SDS011;8594;52.052;8.354;2023-03-14T11:41:04;1.27;;;0.83;;
16954;SDS011;8594;52.052;8.354;2023-03-14T11:43:41;1.50;;;0.93;;
16954;SDS011;8594;52.052;8.354;2023-03-14T11:46:16;2.47;;;1.20;;
16954;SDS011;8594;52.052;8.354;2023-03-14T11:48:52;1.33;;;1.00;;
16954;SDS011;8594;52.052;8.354;2023-03-14T11:51:32;2.70;;;0.90;;
16954;SDS011;8594;52.052;8.354;2023-03-14T11:54:04;1.63;;;0.90;;
16954;SDS011;8594;52.052;8.354;2023-03-14T11:56:44;2.00;;;1.10;;
16954;SDS011;8594;52.052;8.354;2023-03-14T11:59:19;3.63;;;1.03;;
16954;SDS011;8594;52.052;8.354;2023-03-14T12:01:56;1.80;;;1.00;;
16954;SDS011;8594;52.052;8.354;2023-03-14T12:04:40;3.07;;;1.33;;
16954;SDS011;8594;52.052;8.354;2023-03-14T12:07:19;5.87;;;1.57;;
16954;SDS011;8594;52.052;8.354;2023-03-14T12:09:49;5.80;;;1.43;;
16954;SDS011;8594;52.052;8.354;2023-03-14T12:12:19;2.37;;;1.33;;
16954;SDS011;8594;52.052;8.354;2023-03-14T12:14:55;6.60;;;1.60;;
16954;SDS011;8594;52.052;8.354;2023-03-14T12:17:25;3.97;;;1.60;;
16954;SDS011;8594;52.052;8.354;2023-03-14T12:20:03;4.40;;;1.70;;
16954;SDS011;8594;52.052;8.354;2023-03-14T12:22:42;7.57;;;1.80;;
16954;SDS011;8594;52.052;8.354;2023-03-14T12:25:15;6.57;;;1.73;;
16954;SDS011;8594;52.052;8.354;2023-03-14T12:28:03;5.47;;;1.93;;
16954;SDS011;8594;52.052;8.354;2023-03-14T12:30:45;3.60;;;1.77;;
16954;SDS011;8594;52.052;8.354;2023-03-14T12:36:01;12.17;;;2.07;;
16954;SDS011;8594;52.052;8.354;2023-03-14T12:38:47;13.03;;;2.27;;
16954;SDS011;8594;52.052;8.354;2023-03-14T12:41:37;13.43;;;2.37;;
16954;SDS011;8594;52.052;8.354;2023-03-14T12:50:33;6.97;;;2.10;;
16954;SDS011;8594;52.052;8.354;2023-03-14T12:56:27;9.80;;;1.80;;
16954;SDS011;8594;52.052;8.354;2023-03-14T12:59:18;7.20;;;1.90;;
16954;SDS011;8594;52.052;8.354;2023-03-14T13:01:56;11.73;;;2.00;;
16954;SDS011;8594;52.052;8.354;2023-03-14T13:04:31;10.43;;;2.30;;
16954;SDS011;8594;52.052;8.354;2023-03-14T13:07:01;11.40;;;2.07;;
16954;SDS011;8594;52.052;8.354;2023-03-14T13:12:44;10.43;;;2.20;;
16954;SDS011;8594;52.052;8.354;2023-03-14T13:15:22;13.40;;;2.60;;
16954;SDS011;8594;52.052;8.354;2023-03-14T13:17:56;12.30;;;2.70;;
16954;SDS011;8594;52.052;8.354;2023-03-14T13:20:30;14.03;;;2.33;;
16954;SDS011;8594;52.052;8.354;2023-03-14T13:23:01;16.70;;;3.50;;
16954;SDS011;8594;52.052;8.354;2023-03-14T13:25:29;12.40;;;3.30;;
16954;SDS011;8594;52.052;8.354;2023-03-14T13:27:59;11.33;;;3.10;;
16954;SDS011;8594;52.052;8.354;2023-03-14T13:30:28;16.80;;;3.07;;
16954;SDS011;8594;52.052;8.354;2023-03-14T13:33:05;17.40;;;3.30;;
16954;SDS011;8594;52.052;8.354;2023-03-14T13:35:40;13.00;;;3.20;;
16954;SDS011;8594;52.052;8.354;2023-03-14T13:38:16;15.20;;;3.20;;
16954;SDS011;8594;52.052;8.354;2023-03-14T13:40:46;11.63;;;2.70;;
16954;SDS011;8594;52.052;8.354;2023-03-14T13:43:16;19.60;;;2.60;;
16954;SDS011;8594;52.052;8.354;2023-03-14T13:45:53;28.23;;;3.17;;
16954;SDS011;8594;52.052;8.354;2023-03-14T13:48:25;23.17;;;3.70;;
16954;SDS011;8594;52.052;8.354;2023-03-14T13:50:58;16.27;;;2.67;;
16954;SDS011;8594;52.052;8.354;2023-03-14T13:53:28;17.97;;;3.13;;
16954;SDS011;8594;52.052;8.354;2023-03-14T13:55:55;30.23;;;4.40;;
16954;SDS011;8594;52.052;8.354;2023-03-14T13:58:23;18.73;;;3.70;;
16954;SDS011;8594;52.052;8.354;2023-03-14T14:00:57;17.60;;;3.53;;
16954;SDS011;8594;52.052;8.354;2023-03-14T14:03:38;17.90;;;2.80;;
16954;SDS011;8594;52.052;8.354;2023-03-14T14:06:10;12.97;;;3.03;;
16954;SDS011;8594;52.052;8.354;2023-03-14T14:08:53;14.17;;;3.40;;
16954;SDS011;8594;52.052;8.354;2023-03-14T14:11:31;26.47;;;4.90;;
16954;SDS011;8594;52.052;8.354;2023-03-14T14:14:08;17.97;;;2.63;;
16954;SDS011;8594;52.052;8.354;2023-03-14T14:16:42;21.17;;;3.43;;
16954;SDS011;8594;52.052;8.354;2023-03-14T14:19:11;17.53;;;2.83;;
16954;SDS011;8594;52.052;8.354;2023-03-14T14:21:42;18.50;;;2.87;;
16954;SDS011;8594;52.052;8.354;2023-03-14T14:24:09;20.50;;;3.00;;
16954;SDS011;8594;52.052;8.354;2023-03-14T14:26:40;19.47;;;2.97;;
16954;SDS011;8594;52.052;8.354;2023-03-14T14:29:26;18.07;;;2.97;;
16954;SDS011;8594;52.052;8.354;2023-03-14T14:32:01;16.80;;;2.93;;
16954;SDS011;8594;52.052;8.354;2023-03-14T14:34:38;13.73;;;2.40;;
16954;SDS011;8594;52.052;8.354;2023-03-14T14:37:17;14.37;;;3.07;;
16954;SDS011;8594;52.052;8.354;2023-03-14T14:39:46;14.43;;;2.07;;
16954;SDS011;8594;52.052;8.354;2023-03-14T14:42:14;12.17;;;2.40;;
16954;SDS011;8594;52.052;8.354;2023-03-14T14:44:43;13.53;;;2.30;;
16954;SDS011;8594;52.052;8.354;2023-03-14T14:47:12;18.70;;;3.50;;
16954;SDS011;8594;52.052;8.354;2023-03-14T14:49:43;13.43;;;2.03;;
16954;SDS011;8594;52.052;8.354;2023-03-14T14:52:11;14.13;;;2.77;;
16954;SDS011;8594;52.052;8.354;2023-03-14T14:54:46;22.90;;;2.80;;
16954;SDS011;8594;52.052;8.354;2023-03-14T14:57:20;13.13;;;2.10;;
16954;SDS011;8594;52.052;8.354;2023-03-14T14:59:50;14.57;;;3.00;;
16954;SDS011;8594;52.052;8.354;2023-03-14T15:02:25;11.30;;;2.23;;
16954;SDS011;8594;52.052;8.354;2023-03-14T15:04:58;13.50;;;2.20;;
16954;SDS011;8594;52.052;8.354;2023-03-14T15:07:25;16.43;;;2.33;;
16954;SDS011;8594;52.052;8.354;2023-03-14T15:09:53;12.10;;;1.97;;
16954;SDS011;8594;52.052;8.354;2023-03-14T15:12:20;9.77;;;2.03;;
16954;SDS011;8594;52.052;8.354;2023-03-14T15:14:49;8.57;;;1.60;;
16954;SDS011;8594;52.052;8.354;2023-03-14T15:17:16;8.23;;;2.17;;
16954;SDS011;8594;52.052;8.354;2023-03-14T15:19:43;14.57;;;2.20;;
16954;SDS011;8594;52.052;8.354;2023-03-14T15:22:11;11.73;;;1.73;;
16954;SDS011;8594;52.052;8.354;2023-03-14T15:24:39;20.97;;;2.27;;
16954;SDS011;8594;52.052;8.354;2023-03-14T15:27:10;5.63;;;1.70;;
16954;SDS011;8594;52.052;8.354;2023-03-14T15:29:41;8.30;;;1.53;;
16954;SDS011;8594;52.052;8.354;2023-03-14T15:32:09;11.63;;;1.87;;
16954;SDS011;8594;52.052;8.354;2023-03-14T15:34:38;9.43;;;1.60;;
16954;SDS011;8594;52.052;8.354;2023-03-14T15:37:05;9.07;;;1.80;;
16954;SDS011;8594;52.052;8.354;2023-03-14T15:39:37;10.23;;;1.73;;
16954;SDS011;8594;52.052;8.354;2023-03-14T15:42:04;12.87;;;2.23;;
16954;SDS011;8594;52.052;8.354;2023-03-14T15:44:32;5.97;;;1.90;;
16954;SDS011;8594;52.052;8.354;2023-03-14T15:46:59;16.43;;;2.30;;
16954;SDS011;8594;52.052;8.354;2023-03-14T15:49:26;11.60;;;2.00;;
16954;SDS011;8594;52.052;8.354;2023-03-14T15:51:53;10.10;;;1.63;;